Time;durP1;ratioP1;P1;durP2;ratioP2;P2;SDS_P1;SDS_P2;PMS_P1;PMS_P2;Temp;Humidity;BMP_temperature;BMP_pressure;BME280_temperature;BME280_humidity;BME280_pressure;Samples;Min_cycle;Max_cycle;Signal;HPM_P1;HPM_P2
2024/02/24 00:00:25;;;;;;;15.52;13.80;;;8.10;89.70;;;;;;4931145;28;112695;-52
2024/02/24 00:02:51;;;;;;;17.45;14.32;;;8.10;89.70;;;;;;4930039;28;113319;-52
2024/02/24 00:05:16;;;;;;;18.85;15.70;;;8.10;90.00;;;;;;4930031;28;112888;-51
2024/02/24 00:07:42;;;;;;;16.70;15.00;;;8.10;89.80;;;;;;4931076;28;113015;-51
2024/02/24 00:10:08;;;;;;;14.68;13.27;;;8.00;89.90;;;;;;4930892;28;112746;-51
2024/02/24 00:12:34;;;;;;;18.13;15.68;;;7.90;90.20;;;;;;4930005;28;113163;-51
2024/02/24 00:14:59;;;;;;;17.48;15.73;;;7.80;90.40;;;;;;4929868;28;112689;-52
2024/02/24 00:17:25;;;;;;;16.70;15.02;;;7.80;90.70;;;;;;4945770;28;112585;-51
2024/02/24 00:19:51;;;;;;;20.95;17.27;;;7.80;90.50;;;;;;4930767;28;112718;-51
2024/02/24 00:22:16;;;;;;;18.98;15.07;;;7.70;90.50;;;;;;4929492;28;113654;-51
2024/02/24 00:24:42;;;;;;;19.02;17.05;;;7.70;90.60;;;;;;4929796;28;112771;-51
2024/02/24 00:27:08;;;;;;;20.00;16.65;;;7.60;90.50;;;;;;4931336;28;112585;-51
2024/02/24 00:29:33;;;;;;;19.13;17.23;;;7.50;90.60;;;;;;4930655;28;112698;-52
2024/02/24 00:31:59;;;;;;;24.85;16.13;;;7.40;90.80;;;;;;4929911;28;113221;-51
2024/02/24 00:34:25;;;;;;;17.67;15.88;;;7.40;91.10;;;;;;4929828;28;112894;-51
2024/02/24 00:36:50;;;;;;;19.50;16.95;;;7.30;91.20;;;;;;4930573;28;112473;-51
2024/02/24 00:39:16;;;;;;;17.05;15.40;;;7.30;91.00;;;;;;4930558;28;112749;-51
2024/02/24 00:41:42;;;;;;;19.83;17.58;;;7.30;91.00;;;;;;4929435;28;113142;-51
2024/02/24 00:44:09;;;;;;;18.98;16.92;;;7.20;91.10;;;;;;4929528;28;113109;-51
2024/02/24 00:46:35;;;;;;;16.90;15.15;;;7.20;91.10;;;;;;4930527;28;112862;-51
2024/02/24 00:49:01;;;;;;;18.48;16.35;;;7.30;90.90;;;;;;4930204;28;113013;-51
2024/02/24 00:51:27;;;;;;;20.85;18.52;;;7.20;90.70;;;;;;4929329;28;113179;-51
2024/02/24 00:53:52;;;;;;;20.20;16.55;;;7.10;90.80;;;;;;4929355;28;112743;-51
2024/02/24 00:56:19;;;;;;;19.05;17.08;;;7.10;91.10;;;;;;4930743;28;113320;-51
2024/02/24 00:58:44;;;;;;;19.85;17.65;;;7.10;91.20;;;;;;4930328;28;112903;-51
2024/02/24 01:01:10;;;;;;;16.55;14.95;;;7.00;91.30;;;;;;4929202;28;113147;-51
2024/02/24 01:03:36;;;;;;;22.38;16.45;;;7.00;91.40;;;;;;4929192;28;112591;-51
2024/02/24 01:06:01;;;;;;;22.70;17.20;;;6.90;91.20;;;;;;4916491;28;112695;-51
2024/02/24 01:08:27;;;;;;;21.00;17.65;;;6.90;91.30;;;;;;4930431;28;113095;-51
2024/02/24 01:10:53;;;;;;;17.98;15.35;;;6.80;91.50;;;;;;4929137;28;113603;-51
2024/02/24 01:13:18;;;;;;;16.98;15.38;;;6.80;91.50;;;;;;4929133;28;112781;-52
2024/02/24 01:15:44;;;;;;;14.23;12.77;;;6.80;91.50;;;;;;4930228;28;112922;-52
2024/02/24 01:18:10;;;;;;;17.33;15.52;;;6.80;91.40;;;;;;4930011;28;112679;-51
2024/02/24 01:20:36;;;;;;;13.52;12.20;;;6.80;91.20;;;;;;4928999;28;113215;-51
2024/02/24 01:23:02;;;;;;;14.93;13.52;;;6.80;91.00;;;;;;4928735;28;112555;-51
2024/02/24 01:25:27;;;;;;;14.73;13.32;;;6.70;91.00;;;;;;4929701;28;113798;-51
2024/02/24 01:27:53;;;;;;;15.15;13.75;;;6.70;91.20;;;;;;4930117;28;112849;-51
2024/02/24 01:30:19;;;;;;;14.98;13.50;;;6.60;91.20;;;;;;4928866;28;113503;-51
2024/02/24 01:32:45;;;;;;;17.13;15.43;;;6.60;91.10;;;;;;4928665;28;112973;-51
2024/02/24 01:35:10;;;;;;;17.02;15.23;;;6.40;91.20;;;;;;4929119;28;112832;-51
2024/02/24 01:37:36;;;;;;;18.05;15.73;;;6.50;91.50;;;;;;4929596;28;112680;-51
2024/02/24 01:40:06;;;;;;;16.65;14.98;;;6.40;91.50;;;;;;4928337;28;113092;-51
2024/02/24 01:42:32;;;;;;;18.95;17.05;;;6.40;91.50;;;;;;4928184;28;112665;-51
2024/02/24 01:44:57;;;;;;;20.08;18.08;;;6.30;91.60;;;;;;4929448;28;113570;-51
2024/02/24 01:47:23;;;;;;;18.25;16.17;;;6.30;91.70;;;;;;4928191;28;112966;-51
2024/02/24 01:49:52;;;;;;;62.75;16.23;;;6.30;91.80;;;;;;4928692;28;113191;-51
2024/02/24 01:52:18;;;;;;;13.45;11.07;;;6.20;91.60;;;;;;4928255;28;114096;-51
2024/02/24 01:54:44;;;;;;;41.28;19.40;;;6.00;91.30;;;;;;4928116;28;112663;-51
2024/02/24 01:57:12;;;;;;;36.75;13.75;;;6.00;91.50;;;;;;4929287;28;112743;-51
2024/02/24 01:59:38;;;;;;;75.72;15.55;;;5.90;91.50;;;;;;4928311;28;113211;-51
2024/02/24 02:02:04;;;;;;;34.70;24.63;;;5.90;91.70;;;;;;4922642;28;114063;-51
2024/02/24 02:04:30;;;;;;;17.08;11.95;;;6.00;91.90;;;;;;4910056;28;112796;-51
2024/02/24 02:06:58;;;;;;;14.23;12.85;;;5.90;91.90;;;;;;4909947;28;112658;-51
2024/02/24 02:09:25;;;;;;;13.15;11.93;;;5.90;91.80;;;;;;4908651;28;113258;-51
2024/02/24 02:11:51;;;;;;;13.10;11.80;;;6.00;91.70;;;;;;4908628;28;114561;-51
2024/02/24 02:14:16;;;;;;;11.68;10.43;;;6.20;91.40;;;;;;4909852;28;112464;-51
2024/02/24 02:16:42;;;;;;;14.18;12.68;;;6.40;90.70;;;;;;4909688;28;112740;-51
2024/02/24 02:19:08;;;;;;;12.68;11.35;;;6.60;90.20;;;;;;4908762;28;113239;-51
2024/02/24 02:21:37;;;;;;;12.50;11.05;;;6.70;89.90;;;;;;4908886;28;112659;-51
2024/02/24 02:24:03;;;;;;;14.18;12.43;;;6.80;89.80;;;;;;4909184;28;112606;-51
2024/02/24 02:26:29;;;;;;;14.45;12.27;;;6.80;89.80;;;;;;4924440;28;112741;-51
2024/02/24 02:28:54;;;;;;;13.52;11.80;;;6.70;90.00;;;;;;4909127;28;113438;-51
2024/02/24 02:31:20;;;;;;;16.05;14.45;;;6.50;90.10;;;;;;4908623;28;112642;-51
2024/02/24 02:33:46;;;;;;;16.85;13.65;;;6.30;90.60;;;;;;4909679;28;112992;-51
2024/02/24 02:36:11;;;;;;;14.52;13.02;;;6.30;91.10;;;;;;4909842;28;113143;-51
2024/02/24 02:38:37;;;;;;;16.90;15.05;;;6.30;91.30;;;;;;4908115;28;113220;-51
2024/02/24 02:41:03;;;;;;;15.20;13.65;;;6.10;91.20;;;;;;4908528;28;112527;-51
2024/02/24 02:43:29;;;;;;;15.60;13.27;;;6.10;91.40;;;;;;4909709;28;112943;-51
2024/02/24 02:45:54;;;;;;;14.82;13.18;;;6.10;91.50;;;;;;4915131;28;112787;-51
2024/02/24 02:48:20;;;;;;;14.35;12.77;;;6.10;91.40;;;;;;4931344;28;113192;-51
2024/02/24 02:50:45;;;;;;;14.00;12.60;;;6.00;91.30;;;;;;4930867;28;113744;-51
2024/02/24 02:53:11;;;;;;;16.08;13.38;;;5.90;91.30;;;;;;4927730;28;112704;-51
2024/02/24 02:55:37;;;;;;;15.45;13.05;;;5.90;91.30;;;;;;4911713;28;113011;-51
2024/02/24 02:58:03;;;;;;;15.45;13.95;;;5.90;91.50;;;;;;4915220;28;113224;-51
2024/02/24 03:00:29;;;;;;;15.45;12.50;;;5.90;91.60;;;;;;4920619;28;112720;-51
2024/02/24 03:02:55;;;;;;;13.77;11.82;;;5.90;91.70;;;;;;4924286;28;112489;-51
2024/02/24 03:05:20;;;;;;;15.27;12.45;;;5.80;91.40;;;;;;4925988;28;112806;-51
2024/02/24 03:07:46;;;;;;;15.90;13.38;;;5.80;91.30;;;;;;4897764;28;114459;-51
2024/02/24 03:10:12;;;;;;;13.13;11.80;;;5.80;91.20;;;;;;4911470;28;113015;-51
2024/02/24 03:12:38;;;;;;;15.63;13.75;;;5.70;91.00;;;;;;4916041;28;112715;-51
2024/02/24 03:15:04;;;;;;;17.83;14.50;;;5.70;91.10;;;;;;4922514;28;112735;-51
2024/02/24 03:17:30;;;;;;;17.55;14.25;;;5.70;91.30;;;;;;4911374;28;113312;-51
2024/02/24 03:19:56;;;;;;;15.90;13.38;;;5.70;91.40;;;;;;4911274;28;114184;-51
2024/02/24 03:22:22;;;;;;;15.80;14.05;;;5.60;91.20;;;;;;4912171;28;112503;-51
2024/02/24 03:24:47;;;;;;;14.77;13.25;;;5.60;91.30;;;;;;4912258;28;113180;-51
2024/02/24 03:27:13;;;;;;;15.85;14.10;;;5.60;91.50;;;;;;4911642;28;114599;-51
2024/02/24 03:29:39;;;;;;;16.35;14.75;;;5.60;91.60;;;;;;4909547;28;116406;-51
2024/02/24 03:32:06;;;;;;;44.20;26.17;;;5.70;91.70;;;;;;4912321;28;112983;-51
2024/02/24 03:34:31;;;;;;;19.17;16.17;;;5.70;91.60;;;;;;4912056;28;112909;-51
2024/02/24 03:36:57;;;;;;;12.68;11.38;;;5.70;91.40;;;;;;4910807;28;114365;-51
2024/02/24 03:39:24;;;;;;;12.60;11.10;;;5.70;91.00;;;;;;4910956;28;113129;-51
2024/02/24 03:41:50;;;;;;;12.45;10.77;;;5.70;90.50;;;;;;4911978;28;112982;-51
2024/02/24 03:44:16;;;;;;;11.73;10.63;;;5.50;90.40;;;;;;4912139;28;112752;-51
2024/02/24 03:46:42;;;;;;;16.10;14.50;;;5.40;90.50;;;;;;4910872;28;113368;-51
2024/02/24 03:49:08;;;;;;;14.23;12.57;;;5.50;90.80;;;;;;4910927;28;113052;-51
2024/02/24 03:51:34;;;;;;;14.90;13.15;;;5.60;91.00;;;;;;4911799;28;112518;-52
2024/02/24 03:54:00;;;;;;;14.57;13.15;;;5.60;90.90;;;;;;4911892;28;112745;-51
2024/02/24 03:56:26;;;;;;;18.52;14.60;;;5.50;90.80;;;;;;4909840;28;114411;-51
2024/02/24 03:58:51;;;;;;;18.55;14.95;;;5.50;90.90;;;;;;4910880;28;113428;-51
2024/02/24 04:01:17;;;;;;;19.27;16.92;;;5.40;91.00;;;;;;4911570;28;112517;-51
2024/02/24 04:03:43;;;;;;;17.17;15.38;;;5.40;91.10;;;;;;4911520;28;112665;-51
2024/02/24 04:06:08;;;;;;;20.80;17.80;;;5.40;91.40;;;;;;4910856;28;113728;-51
2024/02/24 04:08:34;;;;;;;18.70;15.35;;;5.60;91.30;;;;;;4910801;28;114008;-51
2024/02/24 04:11:01;;;;;;;20.65;16.75;;;5.70;91.20;;;;;;4911806;28;112586;-51
2024/02/24 04:13:26;;;;;;;16.20;14.60;;;5.90;91.00;;;;;;4911627;28;113092;-51
2024/02/24 04:15:52;;;;;;;17.73;15.70;;;5.90;90.80;;;;;;4910506;28;113189;-52
2024/02/24 04:18:18;;;;;;;17.17;15.45;;;6.00;90.50;;;;;;4910448;28;113699;-51
2024/02/24 04:20:44;;;;;;;17.35;15.10;;;6.00;90.40;;;;;;4911226;28;112802;-51
2024/02/24 04:23:10;;;;;;;17.90;16.08;;;6.00;90.40;;;;;;4911548;28;112653;-52
2024/02/24 04:25:36;;;;;;;19.67;17.60;;;5.80;90.60;;;;;;4910143;28;114398;-51
2024/02/24 04:28:02;;;;;;;21.70;19.55;;;5.80;90.70;;;;;;4910988;28;112678;-51
2024/02/24 04:30:27;;;;;;;22.23;19.90;;;5.80;90.90;;;;;;4911371;28;112771;-51
2024/02/24 04:32:53;;;;;;;23.15;19.77;;;5.80;91.20;;;;;;4911383;28;112678;-51
2024/02/24 04:35:19;;;;;;;19.63;17.63;;;5.80;91.30;;;;;;4910252;28;113368;-52
2024/02/24 04:37:44;;;;;;;18.63;16.92;;;6.00;90.90;;;;;;4909914;28;113276;-52
2024/02/24 04:40:10;;;;;;;19.52;17.60;;;6.10;90.40;;;;;;4911167;28;112685;-51
2024/02/24 04:42:36;;;;;;;19.58;17.75;;;6.20;90.10;;;;;;4910793;28;112758;-52
2024/02/24 04:45:02;;;;;;;19.45;17.55;;;6.20;90.20;;;;;;4908653;28;114951;-51
2024/02/24 04:47:28;;;;;;;22.25;19.95;;;6.20;90.10;;;;;;4910119;28;113019;-51
2024/02/24 04:49:54;;;;;;;21.15;19.13;;;6.20;90.10;;;;;;4910734;28;112710;-51
2024/02/24 04:52:20;;;;;;;21.30;19.02;;;6.30;90.20;;;;;;4909619;28;112687;-51
2024/02/24 04:54:47;;;;;;;21.60;19.48;;;6.30;90.00;;;;;;4908381;28;115033;-51
2024/02/24 04:57:13;;;;;;;23.35;21.10;;;6.40;89.80;;;;;;4908473;28;113823;-51
2024/02/24 04:59:38;;;;;;;20.90;18.98;;;6.40;89.90;;;;;;4911001;28;112594;-52
2024/02/24 05:02:04;;;;;;;22.70;20.40;;;6.40;90.00;;;;;;4910947;28;112681;-51
2024/02/24 05:04:30;;;;;;;28.85;26.15;;;6.30;90.00;;;;;;4909786;28;113236;-51
2024/02/24 05:06:55;;;;;;;24.98;22.65;;;6.10;90.30;;;;;;4909884;28;113072;-51
2024/02/24 05:09:21;;;;;;;28.42;25.58;;;6.00;90.70;;;;;;4909482;28;112583;-51
2024/02/24 05:11:47;;;;;;;27.02;24.42;;;5.90;90.90;;;;;;4910838;28;112667;-51
2024/02/24 05:14:13;;;;;;;29.23;26.42;;;5.80;91.20;;;;;;4909465;28;113261;-51
2024/02/24 05:16:40;;;;;;;31.42;27.98;;;5.80;91.30;;;;;;4909851;28;112786;-51
2024/02/24 05:19:05;;;;;;;30.80;27.92;;;5.70;91.30;;;;;;4910438;28;112759;-51
2024/02/24 05:21:31;;;;;;;30.60;27.50;;;5.70;91.40;;;;;;4910497;28;112944;-52
2024/02/24 05:23:57;;;;;;;32.40;29.40;;;5.70;91.40;;;;;;4909420;28;113204;-51
2024/02/24 05:26:27;;;;;;;34.90;31.30;;;5.60;91.50;;;;;;4909261;28;113881;-51
2024/02/24 05:28:53;;;;;;;29.73;27.02;;;5.60;91.70;;;;;;4911139;28;112759;-51
2024/02/24 05:31:19;;;;;;;33.53;30.23;;;5.60;91.80;;;;;;4910468;28;112989;-51
2024/02/24 05:33:47;;;;;;;35.13;31.77;;;5.60;91.80;;;;;;4909308;28;113045;-51
2024/02/24 05:36:16;;;;;;;36.95;33.42;;;5.70;91.90;;;;;;4909128;28;113242;-51
2024/02/24 05:38:42;;;;;;;43.38;39.03;;;5.60;91.90;;;;;;4909950;28;112727;-51
2024/02/24 05:41:08;;;;;;;40.08;36.10;;;5.70;92.10;;;;;;4910369;28;112823;-51
2024/02/24 05:43:34;;;;;;;45.58;41.03;;;5.80;92.20;;;;;;4909397;28;113278;-51
2024/02/24 05:46:03;;;;;;;41.35;37.25;;;5.80;92.20;;;;;;4909232;28;113148;-51
2024/02/24 05:48:36;;;;;;;41.38;37.25;;;5.80;92.00;;;;;;4910401;28;112906;-51
2024/02/24 05:51:04;;;;;;;43.10;38.50;;;5.80;91.90;;;;;;4909875;28;112897;-51
2024/02/24 05:53:30;;;;;;;43.08;38.70;;;5.90;91.80;;;;;;4923826;28;114787;-51
2024/02/24 05:55:56;;;;;;;37.30;33.65;;;5.90;91.60;;;;;;4909247;28;113104;-51
2024/02/24 05:58:21;;;;;;;37.83;33.90;;;5.90;91.50;;;;;;4909986;28;112598;-52
2024/02/24 06:00:47;;;;;;;35.65;32.13;;;5.90;91.40;;;;;;4909845;28;113093;-51
2024/02/24 06:03:13;;;;;;;43.15;38.75;;;5.90;91.30;;;;;;4908600;28;114412;-51
2024/02/24 06:05:39;;;;;;;36.42;32.80;;;5.90;91.40;;;;;;4909024;28;113299;-51
2024/02/24 06:08:05;;;;;;;41.38;37.40;;;6.00;91.40;;;;;;4909886;28;113023;-51
2024/02/24 06:10:31;;;;;;;36.47;32.97;;;6.00;91.30;;;;;;4908303;28;113145;-51
2024/02/24 06:12:57;;;;;;;40.80;36.60;;;6.00;91.30;;;;;;4908883;28;113244;-51
2024/02/24 06:15:22;;;;;;;40.65;36.55;;;6.10;91.20;;;;;;4906958;28;113948;-52
2024/02/24 06:17:48;;;;;;;45.17;40.58;;;6.10;91.00;;;;;;4910097;28;112589;-51
2024/02/24 06:20:14;;;;;;;44.33;39.72;;;6.10;91.00;;;;;;4909547;28;112813;-51
2024/02/24 06:22:39;;;;;;;40.60;36.58;;;6.20;91.00;;;;;;4908800;28;113279;-51
2024/02/24 06:25:05;;;;;;;42.00;37.58;;;6.30;91.00;;;;;;4908653;28;113956;-52
2024/02/24 06:27:31;;;;;;;39.70;35.45;;;6.40;90.80;;;;;;4908674;28;112687;-51
2024/02/24 06:29:57;;;;;;;37.75;34.05;;;6.50;90.40;;;;;;4909597;28;112625;-51
2024/02/24 06:32:23;;;;;;;40.67;36.58;;;6.60;90.10;;;;;;4908555;28;113645;-52
2024/02/24 06:34:49;;;;;;;38.88;34.75;;;6.60;90.00;;;;;;4908766;28;113232;-51
2024/02/24 06:37:15;;;;;;;39.40;35.13;;;6.60;90.00;;;;;;4909604;28;113135;-52
2024/02/24 06:39:40;;;;;;;38.70;34.05;;;6.60;90.00;;;;;;4909099;28;114493;-51
2024/02/24 06:42:07;;;;;;;43.72;39.13;;;6.70;90.10;;;;;;4908365;28;114420;-51
2024/02/24 06:44:33;;;;;;;41.60;37.17;;;6.70;90.20;;;;;;4908406;28;112673;-52
2024/02/24 06:46:59;;;;;;;48.45;39.22;;;6.70;90.10;;;;;;4909930;28;112981;-51
2024/02/24 06:49:24;;;;;;;47.05;36.00;;;6.80;90.00;;;;;;4909413;28;112812;-51
2024/02/24 06:51:51;;;;;;;42.65;37.17;;;6.80;90.20;;;;;;4908389;28;113811;-51
2024/02/24 06:54:16;;;;;;;40.30;36.10;;;6.80;90.20;;;;;;4908129;28;113755;-52
2024/02/24 06:56:42;;;;;;;39.60;35.35;;;6.90;90.10;;;;;;4909022;28;113103;-51
2024/02/24 06:59:08;;;;;;;55.47;39.60;;;6.80;90.00;;;;;;4909080;28;113529;-51
2024/02/24 07:01:34;;;;;;;48.22;40.50;;;6.90;89.80;;;;;;4908286;28;113427;-51
2024/02/24 07:04:00;;;;;;;41.10;35.75;;;7.00;89.90;;;;;;4908231;28;113027;-51
2024/02/24 07:06:25;;;;;;;42.40;35.40;;;7.30;89.40;;;;;;4909325;28;112546;-51
2024/02/24 07:08:51;;;;;;;37.78;33.70;;;7.40;88.90;;;;;;4909119;28;112870;-51
2024/02/24 07:11:17;;;;;;;40.13;35.85;;;7.60;88.60;;;;;;4908166;28;113229;-51
2024/02/24 07:13:42;;;;;;;46.00;37.88;;;7.60;88.50;;;;;;4907721;28;112698;-53
2024/02/24 07:16:08;;;;;;;40.85;35.63;;;7.60;88.70;;;;;;4909281;28;112941;-51
2024/02/24 07:18:36;;;;;;;48.97;39.60;;;7.80;89.10;;;;;;4909271;28;113164;-52
2024/02/24 07:21:02;;;;;;;47.40;37.75;;;7.80;88.80;;;;;;4907897;28;113276;-52
2024/02/24 07:23:28;;;;;;;48.88;36.83;;;7.80;88.80;;;;;;4908193;28;112699;-52
2024/02/24 07:25:54;;;;;;;50.15;38.28;;;7.80;88.80;;;;;;4909031;28;112665;-52
2024/02/24 07:28:19;;;;;;;42.85;35.15;;;7.90;89.00;;;;;;4909522;28;112715;-51
2024/02/24 07:30:45;;;;;;;39.83;34.33;;;8.10;88.80;;;;;;4907574;28;114510;-52
2024/02/24 07:33:12;;;;;;;47.03;35.63;;;8.20;88.70;;;;;;4910591;28;113026;-52
2024/02/24 07:35:37;;;;;;;46.13;36.67;;;8.20;88.30;;;;;;4912273;28;112561;-51
2024/02/24 07:38:03;;;;;;;42.42;34.17;;;8.20;88.50;;;;;;4911746;28;113085;-51
2024/02/24 07:40:29;;;;;;;42.67;33.63;;;8.40;88.30;;;;;;4911341;28;113729;-52
2024/02/24 07:42:55;;;;;;;56.33;34.45;;;8.70;87.60;;;;;;4910862;28;112931;-52
2024/02/24 07:45:22;;;;;;;77.72;37.80;;;8.80;86.90;;;;;;4912165;28;112874;-52
2024/02/24 07:47:48;;;;;;;46.53;33.58;;;8.90;87.00;;;;;;4911927;28;112839;-52
2024/02/24 07:50:14;;;;;;;40.78;32.38;;;9.00;86.60;;;;;;4916690;28;115133;-52
2024/02/24 07:52:40;;;;;;;37.00;32.67;;;9.20;86.40;;;;;;4929693;28;113703;-52
2024/02/24 07:55:06;;;;;;;44.80;34.17;;;9.30;86.30;;;;;;4931266;28;112536;-52
2024/02/24 07:57:32;;;;;;;39.58;34.30;;;9.20;86.40;;;;;;4923473;28;114637;-52
2024/02/24 07:59:58;;;;;;;38.58;32.95;;;9.30;86.30;;;;;;4930021;28;113359;-52
2024/02/24 08:02:23;;;;;;;42.15;34.80;;;9.50;85.80;;;;;;4924397;28;112891;-52
2024/02/24 08:04:49;;;;;;;41.88;36.05;;;9.70;85.30;;;;;;4922450;28;113346;-52
2024/02/24 08:07:15;;;;;;;43.60;35.22;;;9.90;85.10;;;;;;4930934;28;112682;-52
2024/02/24 08:09:40;;;;;;;40.67;34.00;;;10.10;85.20;;;;;;4929782;28;113248;-52
2024/02/24 08:12:06;;;;;;;43.20;35.67;;;10.10;85.10;;;;;;4929309;28;112703;-52
2024/02/24 08:14:32;;;;;;;44.80;36.05;;;10.10;85.10;;;;;;4915881;28;112738;-52
2024/02/24 08:16:58;;;;;;;40.00;33.75;;;10.00;85.80;;;;;;4916728;28;112644;-52
2024/02/24 08:19:23;;;;;;;36.90;32.75;;;10.30;85.60;;;;;;4927648;28;112933;-52
2024/02/24 08:21:49;;;;;;;37.63;31.60;;;10.40;85.40;;;;;;4926336;28;112990;-52
2024/02/24 08:24:16;;;;;;;38.78;30.88;;;10.70;84.10;;;;;;4926474;28;113524;-52
2024/02/24 08:26:44;;;;;;;35.03;30.40;;;10.90;83.80;;;;;;4925213;28;112808;-52
2024/02/24 08:29:10;;;;;;;31.70;27.67;;;11.10;83.20;;;;;;4927503;28;114910;-52
2024/02/24 08:31:37;;;;;;;31.63;27.95;;;11.40;82.30;;;;;;4928808;28;114480;-52
2024/02/24 08:34:03;;;;;;;31.95;27.00;;;11.50;82.20;;;;;;4917753;28;112592;-52
2024/02/24 08:36:28;;;;;;;29.88;26.50;;;11.50;81.90;;;;;;4921102;28;112802;-52
2024/02/24 08:38:56;;;;;;;30.23;26.58;;;11.70;81.60;;;;;;4928877;28;113444;-52
2024/02/24 08:41:22;;;;;;;32.15;26.77;;;11.80;81.90;;;;;;4922836;28;113752;-50
2024/02/24 08:43:48;;;;;;;31.88;26.60;;;11.70;82.10;;;;;;4923581;28;112897;-50
2024/02/24 08:46:14;;;;;;;27.95;24.40;;;11.90;81.10;;;;;;4930422;28;112862;-50
2024/02/24 08:48:39;;;;;;;28.70;23.80;;;12.10;80.60;;;;;;4929118;28;114051;-50
2024/02/24 08:51:05;;;;;;;24.77;21.55;;;12.30;80.00;;;;;;4929299;28;113060;-50
2024/02/24 08:53:31;;;;;;;27.70;21.77;;;12.50;79.20;;;;;;4930305;28;112928;-50
2024/02/24 08:56:00;;;;;;;26.33;20.65;;;12.80;78.90;;;;;;4930250;28;112827;-51
2024/02/24 08:58:26;;;;;;;24.08;19.75;;;12.90;77.10;;;;;;4924931;28;114470;-51
2024/02/24 09:00:54;;;;;;;23.48;19.30;;;13.30;76.80;;;;;;4914097;28;114358;-51
2024/02/24 09:03:20;;;;;;;24.10;18.88;;;13.10;76.00;;;;;;4912820;28;113048;-51
2024/02/24 09:05:46;;;;;;;22.10;19.30;;;12.90;75.70;;;;;;4908587;28;113000;-51
2024/02/24 09:08:11;;;;;;;30.42;24.50;;;12.80;76.60;;;;;;4907550;28;113229;-50
2024/02/24 09:10:37;;;;;;;28.25;25.35;;;12.90;76.30;;;;;;4907702;28;113098;-51
2024/02/24 09:13:03;;;;;;;28.45;25.45;;;13.00;75.90;;;;;;4909170;28;112878;-51
2024/02/24 09:15:29;;;;;;;29.35;26.05;;;12.70;76.00;;;;;;4909552;28;113068;-51
2024/02/24 09:17:55;;;;;;;33.55;28.55;;;12.50;77.00;;;;;;4908712;28;114977;-51
2024/02/24 09:20:21;;;;;;;42.42;30.98;;;12.20;77.80;;;;;;4909690;28;112535;-51
2024/02/24 09:22:49;;;;;;;33.53;29.88;;;12.30;77.70;;;;;;4910182;28;112559;-51
2024/02/24 09:25:15;;;;;;;36.72;29.95;;;12.40;77.80;;;;;;4910513;28;112789;-51
2024/02/24 09:27:42;;;;;;;44.80;35.60;;;12.40;77.30;;;;;;4909779;28;114478;-51
2024/02/24 09:30:10;;;;;;;51.83;35.33;;;12.20;77.80;;;;;;4909567;28;113102;-51
2024/02/24 09:32:39;;;;;;;50.13;35.47;;;12.00;78.00;;;;;;4910126;28;112954;-51
2024/02/24 09:35:06;;;;;;;51.85;37.95;;;11.90;78.30;;;;;;4910315;28;112804;-51
2024/02/24 09:37:32;;;;;;;49.78;38.15;;;12.30;77.60;;;;;;4908966;28;113510;-51
2024/02/24 09:40:00;;;;;;;33.33;29.05;;;12.40;77.10;;;;;;4909168;28;113104;-51
2024/02/24 09:42:26;;;;;;;31.98;28.48;;;12.90;75.70;;;;;;4908837;28;112739;-51
2024/02/24 09:44:56;;;;;;;32.80;27.92;;;13.40;74.30;;;;;;4910097;28;115122;-51
2024/02/24 09:47:22;;;;;;;34.13;26.17;;;13.40;74.00;;;;;;4907802;28;114539;-51
2024/02/24 09:49:47;;;;;;;29.15;26.05;;;14.00;72.20;;;;;;4909114;28;112719;-52
2024/02/24 09:52:13;;;;;;;27.75;24.83;;;14.90;70.70;;;;;;4910524;28;113406;-51
2024/02/24 09:54:39;;;;;;;31.35;26.23;;;15.10;69.20;;;;;;4908298;28;112717;-51
2024/02/24 09:57:05;;;;;;;24.75;21.70;;;15.10;68.40;;;;;;4909275;28;113240;-51
2024/02/24 09:59:33;;;;;;;23.70;21.15;;;15.20;67.60;;;;;;4909132;28;112813;-52
2024/02/24 10:01:58;;;;;;;23.70;19.75;;;15.60;67.30;;;;;;4896986;28;112861;-51
2024/02/24 10:04:25;;;;;;;22.85;18.27;;;16.10;66.60;;;;;;4910079;28;112843;-51
2024/02/24 10:06:50;;;;;;;21.70;15.50;;;16.30;66.60;;;;;;4908853;28;113279;-51
2024/02/24 10:09:16;;;;;;;22.65;14.43;;;16.60;64.40;;;;;;4908910;28;113839;-51
2024/02/24 10:11:42;;;;;;;17.17;13.27;;;16.80;63.60;;;;;;4909856;28;112783;-52
2024/02/24 10:14:08;;;;;;;18.98;13.40;;;17.10;62.50;;;;;;4909708;28;112775;-51
2024/02/24 10:16:37;;;;;;;19.25;13.35;;;17.70;60.80;;;;;;4909052;28;114034;-52
2024/02/24 10:19:06;;;;;;;15.20;12.02;;;17.50;61.20;;;;;;4908644;28;113673;-52
2024/02/24 10:21:33;;;;;;;16.38;13.35;;;17.10;60.50;;;;;;4909695;28;112673;-52
2024/02/24 10:23:59;;;;;;;15.60;11.27;;;17.60;59.70;;;;;;4909830;28;112694;-52
2024/02/24 10:26:26;;;;;;;16.10;12.50;;;17.50;58.50;;;;;;4908782;28;113772;-52
2024/02/24 10:28:53;;;;;;;16.52;12.93;;;17.40;60.80;;;;;;4909197;28;112825;-52
2024/02/24 10:31:20;;;;;;;16.83;11.55;;;17.90;59.90;;;;;;4909429;28;112827;-52
2024/02/24 10:33:47;;;;;;;13.77;11.18;;;18.70;56.90;;;;;;4917667;28;112822;-52
2024/02/24 10:36:14;;;;;;;15.13;11.18;;;19.70;55.50;;;;;;4927144;28;113961;-52
2024/02/24 10:38:43;;;;;;;15.23;10.10;;;20.40;53.50;;;;;;4923942;28;112650;-52
2024/02/24 10:41:10;;;;;;;13.73;9.70;;;20.70;51.50;;;;;;4919910;28;113024;-53
2024/02/24 10:43:37;;;;;;;13.07;9.27;;;20.30;50.30;;;;;;4918289;28;113003;-53
2024/02/24 10:46:03;;;;;;;14.82;9.77;;;20.20;52.70;;;;;;4918515;28;113674;-52
2024/02/24 10:48:29;;;;;;;15.15;9.95;;;20.10;51.40;;;;;;4925887;28;113236;-52
2024/02/24 10:50:55;;;;;;;13.48;9.35;;;19.70;53.00;;;;;;4926463;28;112831;-52
2024/02/24 10:53:27;;;;;;;12.50;9.68;;;19.90;52.00;;;;;;4922263;28;112747;-52
2024/02/24 10:55:55;;;;;;;12.05;9.45;;;19.50;51.50;;;;;;4916332;28;113519;-52
2024/02/24 10:58:21;;;;;;;13.32;9.73;;;19.20;52.40;;;;;;4925732;28;113664;-52
2024/02/24 11:00:50;;;;;;;14.98;10.05;;;18.90;53.00;;;;;;4924618;28;112864;-52
2024/02/24 11:03:19;;;;;;;14.75;10.23;;;18.90;54.00;;;;;;4913069;28;112614;-52
2024/02/24 11:05:50;;;;;;;12.50;9.27;;;19.60;52.20;;;;;;4908734;28;114522;-52
2024/02/24 11:08:50;;;;;;;13.18;9.75;;;20.40;50.10;;;;;;4912351;28;113889;-53
2024/02/24 11:11:16;;;;;;;14.70;10.00;;;20.60;49.60;;;;;;4899794;28;112885;-52
2024/02/24 11:13:45;;;;;;;13.75;10.30;;;19.80;50.00;;;;;;4910182;28;113551;-52
2024/02/24 11:16:11;;;;;;;13.07;9.98;;;19.00;52.00;;;;;;4905784;28;114671;-52
2024/02/24 11:18:49;;;;;;;11.57;9.50;;;20.30;50.20;;;;;;4902475;28;114055;-52
2024/02/24 11:21:19;;;;;;;12.95;10.25;;;21.20;49.60;;;;;;4910968;28;113129;-52
2024/02/24 11:23:47;;;;;;;11.80;10.07;;;21.30;47.40;;;;;;4909925;28;112917;-52
2024/02/24 11:26:16;;;;;;;12.57;9.90;;;21.40;47.50;;;;;;4908706;28;113439;-53
2024/02/24 11:28:45;;;;;;;13.43;10.07;;;21.80;47.50;;;;;;4910347;28;112917;-53
2024/02/24 11:31:29;;;;;;;12.10;9.43;;;22.20;45.60;;;;;;4909684;28;113117;-53
2024/02/24 11:34:05;;;;;;;12.13;9.88;;;22.00;46.40;;;;;;4910620;28;113088;-52
2024/02/24 11:36:32;;;;;;;11.85;10.65;;;21.40;47.30;;;;;;4909844;28;114010;-52
2024/02/24 11:38:59;;;;;;;11.98;10.10;;;21.50;46.20;;;;;;4908573;28;113190;-53
2024/02/24 11:41:28;;;;;;;12.15;10.07;;;20.90;47.80;;;;;;4909394;28;113133;-52
2024/02/24 11:43:54;;;;;;;11.77;9.57;;;20.90;47.10;;;;;;4909711;28;113805;-52
2024/02/24 11:46:20;;;;;;;10.25;9.35;;;21.30;46.80;;;;;;4910076;28;113196;-52
2024/02/24 11:48:46;;;;;;;10.75;9.68;;;21.40;46.10;;;;;;4912082;28;112709;-52
2024/02/24 11:51:11;;;;;;;14.15;9.48;;;21.30;46.30;;;;;;4913073;28;112851;-52
2024/02/24 11:53:37;;;;;;;10.55;9.43;;;21.20;47.20;;;;;;4913077;28;113101;-52
2024/02/24 11:56:03;;;;;;;10.25;9.25;;;21.00;47.80;;;;;;4911783;28;114680;-52
2024/02/24 11:58:29;;;;;;;12.63;10.95;;;20.80;47.80;;;;;;4910229;28;115798;-53
2024/02/24 12:00:55;;;;;;;10.98;9.85;;;20.60;47.90;;;;;;4911939;28;112929;-52
2024/02/24 12:03:21;;;;;;;12.73;9.80;;;20.40;48.80;;;;;;4912490;28;112796;-52
2024/02/24 12:05:47;;;;;;;12.63;9.85;;;20.80;49.20;;;;;;4911756;28;113241;-52
2024/02/24 12:08:16;;;;;;;12.93;10.00;;;21.30;46.40;;;;;;4911390;28;113093;-52
2024/02/24 12:10:42;;;;;;;11.30;9.50;;;21.40;46.00;;;;;;4911394;28;112896;-53
2024/02/24 12:13:15;;;;;;;11.02;9.40;;;21.10;46.60;;;;;;4911090;28;113029;-52
2024/02/24 12:15:43;;;;;;;12.60;10.90;;;21.40;47.00;;;;;;4911385;28;115249;-52
2024/02/24 12:18:09;;;;;;;11.35;7.85;;;22.10;46.50;;;;;;4910048;28;113372;-52
2024/02/24 12:20:43;;;;;;;13.57;8.65;;;21.90;45.70;;;;;;4912426;28;112764;-52